sensor_id;sensor_type;location;lat;lon;timestamp;pressure;altitude;pressure_sealevel;temperature;humidity
24306;BME280;12423;48.768;8.850;2024-01-06T00:01:20;95801.06;;;3.93;100.00
24306;BME280;12423;48.768;8.850;2024-01-06T00:03:48;95796.63;;;3.82;100.00
24306;BME280;12423;48.768;8.850;2024-01-06T00:06:15;95797.38;;;3.84;100.00
24306;BME280;12423;48.768;8.850;2024-01-06T00:08:43;95796.28;;;3.87;100.00
24306;BME280;12423;48.768;8.850;2024-01-06T00:11:12;95799.88;;;3.86;100.00
24306;BME280;12423;48.768;8.850;2024-01-06T00:13:39;95802.25;;;3.89;100.00
24306;BME280;12423;48.768;8.850;2024-01-06T00:16:07;95799.28;;;3.94;100.00
24306;BME280;12423;48.768;8.850;2024-01-06T00:18:34;95800.25;;;3.93;100.00
24306;BME280;12423;48.768;8.850;2024-01-06T00:21:02;95807.44;;;3.91;100.00
24306;BME280;12423;48.768;8.850;2024-01-06T00:23:30;95803.97;;;3.90;100.00
24306;BME280;12423;48.768;8.850;2024-01-06T00:25:57;95800.72;;;3.86;100.00
24306;BME280;12423;48.768;8.850;2024-01-06T00:28:26;95794.84;;;3.83;100.00
24306;BME280;12423;48.768;8.850;2024-01-06T00:30:53;95794.72;;;3.62;100.00
24306;BME280;12423;48.768;8.850;2024-01-06T00:33:21;95791.38;;;3.60;100.00
24306;BME280;12423;48.768;8.850;2024-01-06T00:35:49;95801.94;;;3.48;100.00
24306;BME280;12423;48.768;8.850;2024-01-06T00:38:16;95804.06;;;3.66;100.00
24306;BME280;12423;48.768;8.850;2024-01-06T00:40:44;95801.91;;;3.82;100.00
24306;BME280;12423;48.768;8.850;2024-01-06T00:43:11;95804.66;;;3.69;100.00
24306;BME280;12423;48.768;8.850;2024-01-06T00:45:40;95805.75;;;3.67;100.00
24306;BME280;12423;48.768;8.850;2024-01-06T00:48:08;95809.84;;;3.82;100.00
24306;BME280;12423;48.768;8.850;2024-01-06T00:50:35;95810.06;;;4.02;100.00
24306;BME280;12423;48.768;8.850;2024-01-06T00:53:03;95824.47;;;4.09;100.00
24306;BME280;12423;48.768;8.850;2024-01-06T00:55:31;95828.31;;;4.16;100.00
24306;BME280;12423;48.768;8.850;2024-01-06T00:57:58;95827.03;;;3.99;100.00
24306;BME280;12423;48.768;8.850;2024-01-06T01:00:26;95832.16;;;4.01;100.00
24306;BME280;12423;48.768;8.850;2024-01-06T01:02:55;95834.81;;;4.01;100.00
24306;BME280;12423;48.768;8.850;2024-01-06T01:05:23;95836.03;;;3.85;100.00
24306;BME280;12423;48.768;8.850;2024-01-06T01:07:50;95841.91;;;3.89;100.00
24306;BME280;12423;48.768;8.850;2024-01-06T01:10:18;95844.31;;;3.92;100.00
24306;BME280;12423;48.768;8.850;2024-01-06T01:12:45;95841.41;;;3.95;100.00
24306;BME280;12423;48.768;8.850;2024-01-06T01:15:13;95835.78;;;4.11;100.00
24306;BME280;12423;48.768;8.850;2024-01-06T01:17:40;95843.13;;;3.96;100.00
24306;BME280;12423;48.768;8.850;2024-01-06T01:20:10;95838.19;;;4.03;100.00
24306;BME280;12423;48.768;8.850;2024-01-06T01:22:38;95842.38;;;3.94;100.00
24306;BME280;12423;48.768;8.850;2024-01-06T01:25:05;95841.06;;;4.00;100.00
24306;BME280;12423;48.768;8.850;2024-01-06T01:27:34;95851.63;;;3.88;100.00
24306;BME280;12423;48.768;8.850;2024-01-06T01:30:02;95859.78;;;3.85;100.00
24306;BME280;12423;48.768;8.850;2024-01-06T01:32:29;95858.84;;;3.86;100.00
24306;BME280;12423;48.768;8.850;2024-01-06T01:34:57;95866.53;;;3.90;100.00
24306;BME280;12423;48.768;8.850;2024-01-06T01:37:26;95866.50;;;3.67;100.00
24306;BME280;12423;48.768;8.850;2024-01-06T01:39:53;95857.75;;;3.78;100.00
24306;BME280;12423;48.768;8.850;2024-01-06T01:42:21;95864.59;;;3.92;100.00
24306;BME280;12423;48.768;8.850;2024-01-06T01:44:49;95867.25;;;3.92;100.00
24306;BME280;12423;48.768;8.850;2024-01-06T01:47:16;95877.22;;;3.99;100.00
24306;BME280;12423;48.768;8.850;2024-01-06T01:49:45;95881.41;;;3.91;100.00
24306;BME280;12423;48.768;8.850;2024-01-06T01:52:13;95875.41;;;3.77;100.00
24306;BME280;12423;48.768;8.850;2024-01-06T01:54:42;95875.41;;;3.88;100.00
24306;BME280;12423;48.768;8.850;2024-01-06T01:57:10;95884.78;;;3.93;100.00
24306;BME280;12423;48.768;8.850;2024-01-06T01:59:38;95883.34;;;4.00;100.00
24306;BME280;12423;48.768;8.850;2024-01-06T02:02:06;95890.78;;;3.95;100.00
24306;BME280;12423;48.768;8.850;2024-01-06T02:04:33;95882.38;;;4.12;100.00
24306;BME280;12423;48.768;8.850;2024-01-06T02:07:01;95888.63;;;3.88;100.00
24306;BME280;12423;48.768;8.850;2024-01-06T02:09:28;95889.22;;;4.03;100.00
24306;BME280;12423;48.768;8.850;2024-01-06T02:11:57;95885.25;;;4.09;100.00
24306;BME280;12423;48.768;8.850;2024-01-06T02:14:25;95889.22;;;4.15;100.00
24306;BME280;12423;48.768;8.850;2024-01-06T02:16:52;95896.56;;;4.11;100.00
24306;BME280;12423;48.768;8.850;2024-01-06T02:19:20;95901.09;;;4.09;100.00
24306;BME280;12423;48.768;8.850;2024-01-06T02:21:50;95900.16;;;3.99;100.00
24306;BME280;12423;48.768;8.850;2024-01-06T02:24:18;95907.38;;;4.08;100.00
24306;BME280;12423;48.768;8.850;2024-01-06T02:26:46;95901.84;;;4.00;100.00
24306;BME280;12423;48.768;8.850;2024-01-06T02:29:13;95907.59;;;3.94;100.00
24306;BME280;12423;48.768;8.850;2024-01-06T02:31:41;95900.50;;;4.05;100.00
24306;BME280;12423;48.768;8.850;2024-01-06T02:34:09;95902.78;;;3.87;100.00
24306;BME280;12423;48.768;8.850;2024-01-06T02:36:36;95910.72;;;3.87;100.00
24306;BME280;12423;48.768;8.850;2024-01-06T02:39:05;95912.38;;;3.77;100.00
24306;BME280;12423;48.768;8.850;2024-01-06T02:41:33;95904.19;;;3.69;100.00
24306;BME280;12423;48.768;8.850;2024-01-06T02:44:00;95910.72;;;3.76;100.00
24306;BME280;12423;48.768;8.850;2024-01-06T02:46:29;95906.63;;;3.83;100.00
24306;BME280;12423;48.768;8.850;2024-01-06T02:48:56;95913.34;;;3.87;100.00
24306;BME280;12423;48.768;8.850;2024-01-06T02:51:24;95907.00;;;3.90;100.00
24306;BME280;12423;48.768;8.850;2024-01-06T02:53:51;95904.44;;;3.66;100.00
24306;BME280;12423;48.768;8.850;2024-01-06T02:56:20;95912.16;;;3.80;100.00
24306;BME280;12423;48.768;8.850;2024-01-06T02:58:48;95912.97;;;3.69;100.00
24306;BME280;12423;48.768;8.850;2024-01-06T03:01:15;95908.78;;;3.78;100.00
24306;BME280;12423;48.768;8.850;2024-01-06T03:03:43;95913.22;;;3.78;100.00
24306;BME280;12423;48.768;8.850;2024-01-06T03:06:10;95910.34;;;3.81;100.00
24306;BME280;12423;48.768;8.850;2024-01-06T03:11:30;95902.06;;;3.85;100.00
24306;BME280;12423;48.768;8.850;2024-01-06T03:13:57;95908.78;;;4.12;100.00
24306;BME280;12423;48.768;8.850;2024-01-06T03:16:25;95900.50;;;4.28;100.00
24306;BME280;12423;48.768;8.850;2024-01-06T03:18:52;95905.69;;;4.18;100.00
24306;BME280;12423;48.768;8.850;2024-01-06T03:21:20;95904.13;;;4.16;100.00
24306;BME280;12423;48.768;8.850;2024-01-06T03:23:48;95914.19;;;4.11;100.00
24306;BME280;12423;48.768;8.850;2024-01-06T03:26:16;95911.22;;;4.15;100.00
24306;BME280;12423;48.768;8.850;2024-01-06T03:28:45;95907.84;;;4.13;100.00
24306;BME280;12423;48.768;8.850;2024-01-06T03:31:13;95909.03;;;4.20;100.00
24306;BME280;12423;48.768;8.850;2024-01-06T03:33:40;95911.22;;;4.15;100.00
24306;BME280;12423;48.768;8.850;2024-01-06T03:36:08;95901.59;;;4.03;100.00
24306;BME280;12423;48.768;8.850;2024-01-06T03:38:36;95908.91;;;4.11;100.00
24306;BME280;12423;48.768;8.850;2024-01-06T03:41:03;95906.66;;;4.06;100.00
24306;BME280;12423;48.768;8.850;2024-01-06T03:43:31;95900.63;;;4.15;100.00
24306;BME280;12423;48.768;8.850;2024-01-06T03:46:00;95908.56;;;4.04;100.00
24306;BME280;12423;48.768;8.850;2024-01-06T03:48:27;95902.31;;;3.94;100.00
24306;BME280;12423;48.768;8.850;2024-01-06T03:50:55;95899.19;;;4.00;100.00
24306;BME280;12423;48.768;8.850;2024-01-06T03:53:23;95901.94;;;3.87;100.00
24306;BME280;12423;48.768;8.850;2024-01-06T03:55:52;95900.97;;;3.77;100.00
24306;BME280;12423;48.768;8.850;2024-01-06T03:58:20;95902.06;;;3.85;100.00
24306;BME280;12423;48.768;8.850;2024-01-06T04:00:47;95904.84;;;3.95;100.00
24306;BME280;12423;48.768;8.850;2024-01-06T04:03:16;95910.72;;;3.99;100.00
24306;BME280;12423;48.768;8.850;2024-01-06T04:05:44;95907.03;;;4.13;100.00
24306;BME280;12423;48.768;8.850;2024-01-06T04:08:11;95911.44;;;4.23;100.00
24306;BME280;12423;48.768;8.850;2024-01-06T04:10:39;95916.13;;;4.09;100.00
24306;BME280;12423;48.768;8.850;2024-01-06T04:13:07;95912.91;;;4.16;100.00
24306;BME280;12423;48.768;8.850;2024-01-06T04:15:35;95909.03;;;4.20;100.00
24306;BME280;12423;48.768;8.850;2024-01-06T04:18:03;95909.03;;;4.20;100.00
24306;BME280;12423;48.768;8.850;2024-01-06T04:20:32;95907.97;;;4.12;100.00
24306;BME280;12423;48.768;8.850;2024-01-06T04:23:00;95913.25;;;4.12;100.00
24306;BME280;12423;48.768;8.850;2024-01-06T04:25:27;95918.28;;;4.03;100.00
24306;BME280;12423;48.768;8.850;2024-01-06T04:27:55;95913.13;;;3.91;100.00
24306;BME280;12423;48.768;8.850;2024-01-06T04:30:22;95915.53;;;4.05;100.00
24306;BME280;12423;48.768;8.850;2024-01-06T04:32:51;95897.75;;;4.18;100.00
24306;BME280;12423;48.768;8.850;2024-01-06T04:35:19;95906.63;;;4.29;100.00
24306;BME280;12423;48.768;8.850;2024-01-06T04:37:49;95910.50;;;4.36;100.00
24306;BME280;12423;48.768;8.850;2024-01-06T04:40:16;95911.22;;;4.27;100.00
24306;BME280;12423;48.768;8.850;2024-01-06T04:42:44;95912.19;;;4.03;100.00
24306;BME280;12423;48.768;8.850;2024-01-06T04:45:11;95918.06;;;4.18;100.00
24306;BME280;12423;48.768;8.850;2024-01-06T04:47:39;95918.41;;;4.13;100.00
24306;BME280;12423;48.768;8.850;2024-01-06T04:50:07;95921.31;;;4.21;100.00
24306;BME280;12423;48.768;8.850;2024-01-06T04:52:34;95924.19;;;4.18;100.00
24306;BME280;12423;48.768;8.850;2024-01-06T04:55:04;95927.06;;;4.27;100.00
24306;BME280;12423;48.768;8.850;2024-01-06T04:57:31;95924.66;;;4.23;100.00
24306;BME280;12423;48.768;8.850;2024-01-06T04:59:59;95921.31;;;4.21;100.00
24306;BME280;12423;48.768;8.850;2024-01-06T05:02:26;95924.53;;;4.25;100.00
24306;BME280;12423;48.768;8.850;2024-01-06T05:04:54;95926.13;;;4.28;100.00
24306;BME280;12423;48.768;8.850;2024-01-06T05:07:21;95919.38;;;4.35;100.00
24306;BME280;12423;48.768;8.850;2024-01-06T05:09:49;95918.06;;;4.29;100.00
24306;BME280;12423;48.768;8.850;2024-01-06T05:12:18;95913.72;;;4.39;100.00
24306;BME280;12423;48.768;8.850;2024-01-06T05:14:45;95919.97;;;4.27;100.00
24306;BME280;12423;48.768;8.850;2024-01-06T05:17:13;95922.72;;;4.25;100.00
24306;BME280;12423;48.768;8.850;2024-01-06T05:19:40;95918.44;;;4.24;100.00
24306;BME280;12423;48.768;8.850;2024-01-06T05:22:08;95929.13;;;4.46;100.00
24306;BME280;12423;48.768;8.850;2024-01-06T05:24:35;95924.41;;;4.49;100.00
24306;BME280;12423;48.768;8.850;2024-01-06T05:27:03;95929.00;;;4.47;100.00
24306;BME280;12423;48.768;8.850;2024-01-06T05:29:32;95928.25;;;4.45;100.00
24306;BME280;12423;48.768;8.850;2024-01-06T05:31:59;95928.25;;;4.45;100.00
24306;BME280;12423;48.768;8.850;2024-01-06T05:34:27;95938.13;;;4.54;100.00
24306;BME280;12423;48.768;8.850;2024-01-06T05:36:54;95936.41;;;4.53;100.00
24306;BME280;12423;48.768;8.850;2024-01-06T05:39:22;95934.53;;;4.33;100.00
24306;BME280;12423;48.768;8.850;2024-01-06T05:41:51;95938.13;;;4.32;100.00
24306;BME280;12423;48.768;8.850;2024-01-06T05:44:18;95943.53;;;4.19;100.00
24306;BME280;12423;48.768;8.850;2024-01-06T05:46:47;95951.97;;;4.24;100.00
24306;BME280;12423;48.768;8.850;2024-01-06T05:49:15;95957.59;;;4.31;100.00
24306;BME280;12423;48.768;8.850;2024-01-06T05:51:44;95957.47;;;4.32;100.00
24306;BME280;12423;48.768;8.850;2024-01-06T05:54:11;95958.91;;;4.48;100.00
24306;BME280;12423;48.768;8.850;2024-01-06T05:56:39;95965.63;;;4.40;100.00
24306;BME280;12423;48.768;8.850;2024-01-06T05:59:06;95970.91;;;4.40;100.00
24306;BME280;12423;48.768;8.850;2024-01-06T06:01:34;95981.25;;;4.43;100.00
24306;BME280;12423;48.768;8.850;2024-01-06T06:04:03;95961.81;;;4.45;100.00
24306;BME280;12423;48.768;8.850;2024-01-06T06:06:31;95966.03;;;4.47;100.00
24306;BME280;12423;48.768;8.850;2024-01-06T06:08:59;95972.25;;;4.46;100.00
24306;BME280;12423;48.768;8.850;2024-01-06T06:11:26;95985.13;;;4.28;100.00
24306;BME280;12423;48.768;8.850;2024-01-06T06:13:54;95992.09;;;4.29;100.00
24306;BME280;12423;48.768;8.850;2024-01-06T06:16:21;95995.59;;;4.41;100.00
24306;BME280;12423;48.768;8.850;2024-01-06T06:18:49;95986.81;;;4.29;100.00
24306;BME280;12423;48.768;8.850;2024-01-06T06:21:18;95994.50;;;4.21;100.00
24306;BME280;12423;48.768;8.850;2024-01-06T06:23:45;95997.25;;;4.19;100.00
24306;BME280;12423;48.768;8.850;2024-01-06T06:26:13;95998.19;;;4.18;100.00
24306;BME280;12423;48.768;8.850;2024-01-06T06:28:40;96008.56;;;4.33;100.00
24306;BME280;12423;48.768;8.850;2024-01-06T06:31:07;96003.16;;;4.34;100.00
24306;BME280;12423;48.768;8.850;2024-01-06T06:33:35;96005.78;;;4.34;100.00
24306;BME280;12423;48.768;8.850;2024-01-06T06:36:03;96008.09;;;4.39;100.00
24306;BME280;12423;48.768;8.850;2024-01-06T06:38:33;96016.97;;;4.49;100.00
24306;BME280;12423;48.768;8.850;2024-01-06T06:41:00;96018.03;;;4.47;100.00
24306;BME280;12423;48.768;8.850;2024-01-06T06:43:28;96028.72;;;4.34;100.00
24306;BME280;12423;48.768;8.850;2024-01-06T06:45:55;96027.19;;;4.31;100.00
24306;BME280;12423;48.768;8.850;2024-01-06T06:48:23;96033.53;;;4.29;100.00
24306;BME280;12423;48.768;8.850;2024-01-06T06:50:50;96033.28;;;4.32;100.00
24306;BME280;12423;48.768;8.850;2024-01-06T06:53:18;96037.16;;;4.28;100.00
24306;BME280;12423;48.768;8.850;2024-01-06T06:55:47;96038.44;;;4.22;100.00
24306;BME280;12423;48.768;8.850;2024-01-06T06:58:15;96038.06;;;4.15;100.00
24306;BME280;12423;48.768;8.850;2024-01-06T07:00:42;96039.06;;;4.14;100.00
24306;BME280;12423;48.768;8.850;2024-01-06T07:03:10;96044.81;;;4.08;100.00
24306;BME280;12423;48.768;8.850;2024-01-06T07:05:37;96037.66;;;3.97;100.00
24306;BME280;12423;48.768;8.850;2024-01-06T07:08:05;96038.16;;;4.02;100.00
24306;BME280;12423;48.768;8.850;2024-01-06T07:10:33;96043.06;;;3.96;100.00
24306;BME280;12423;48.768;8.850;2024-01-06T07:13:02;96044.34;;;4.14;100.00
24306;BME280;12423;48.768;8.850;2024-01-06T07:15:29;96057.03;;;4.09;100.00
24306;BME280;12423;48.768;8.850;2024-01-06T07:17:57;96048.66;;;4.15;100.00
24306;BME280;12423;48.768;8.850;2024-01-06T07:20:25;96049.13;;;4.20;100.00
24306;BME280;12423;48.768;8.850;2024-01-06T07:22:52;96046.25;;;4.23;100.00
24306;BME280;12423;48.768;8.850;2024-01-06T07:25:20;96046.13;;;4.14;100.00
24306;BME280;12423;48.768;8.850;2024-01-06T07:27:47;96041.66;;;4.03;100.00
24306;BME280;12423;48.768;8.850;2024-01-06T07:30:19;96047.75;;;3.92;100.00
24306;BME280;12423;48.768;8.850;2024-01-06T07:32:46;96050.88;;;3.97;100.00
24306;BME280;12423;48.768;8.850;2024-01-06T07:35:16;96045.22;;;3.91;100.00
24306;BME280;12423;48.768;8.850;2024-01-06T07:37:44;96052.81;;;3.95;100.00
24306;BME280;12423;48.768;8.850;2024-01-06T07:40:11;96046.34;;;3.99;100.00
24306;BME280;12423;48.768;8.850;2024-01-06T07:42:42;96047.66;;;4.05;100.00
24306;BME280;12423;48.768;8.850;2024-01-06T07:45:10;96056.19;;;4.09;100.00
24306;BME280;12423;48.768;8.850;2024-01-06T07:47:41;96066.66;;;4.10;100.00
24306;BME280;12423;48.768;8.850;2024-01-06T07:50:09;96061.50;;;4.09;100.00
24306;BME280;12423;48.768;8.850;2024-01-06T07:52:36;96057.03;;;4.09;100.00
24306;BME280;12423;48.768;8.850;2024-01-06T07:55:03;96062.69;;;4.04;100.00
24306;BME280;12423;48.768;8.850;2024-01-06T07:57:31;96064.13;;;4.09;100.00
24306;BME280;12423;48.768;8.850;2024-01-06T07:59:59;96064.97;;;4.09;100.00
24306;BME280;12423;48.768;8.850;2024-01-06T08:02:37;96063.06;;;4.11;100.00
24306;BME280;12423;48.768;8.850;2024-01-06T08:05:06;96066.44;;;4.13;100.00
24306;BME280;12423;48.768;8.850;2024-01-06T08:07:34;96069.53;;;4.07;100.00
24306;BME280;12423;48.768;8.850;2024-01-06T08:10:01;96067.88;;;4.06;100.00
24306;BME280;12423;48.768;8.850;2024-01-06T08:12:31;96070.25;;;4.09;100.00
24306;BME280;12423;48.768;8.850;2024-01-06T08:14:59;96068.13;;;4.14;100.00
24306;BME280;12423;48.768;8.850;2024-01-06T08:17:26;96073.16;;;4.17;100.00
24306;BME280;12423;48.768;8.850;2024-01-06T08:19:54;96070.28;;;4.20;100.00
24306;BME280;12423;48.768;8.850;2024-01-06T08:22:23;96075.56;;;4.20;100.00
24306;BME280;12423;48.768;8.850;2024-01-06T08:24:50;96073.69;;;4.22;100.00
24306;BME280;12423;48.768;8.850;2024-01-06T08:27:18;96066.00;;;4.31;100.00
24306;BME280;12423;48.768;8.850;2024-01-06T08:29:46;96076.94;;;4.26;100.00
24306;BME280;12423;48.768;8.850;2024-01-06T08:32:14;96084.13;;;4.24;100.00
24306;BME280;12423;48.768;8.850;2024-01-06T08:34:41;96078.25;;;4.32;100.00
24306;BME280;12423;48.768;8.850;2024-01-06T08:37:09;96085.50;;;4.41;100.00
24306;BME280;12423;48.768;8.850;2024-01-06T08:39:38;96082.63;;;4.55;100.00
24306;BME280;12423;48.768;8.850;2024-01-06T08:42:05;96097.78;;;4.65;100.00
24306;BME280;12423;48.768;8.850;2024-01-06T08:44:33;96098.16;;;4.83;100.00
24306;BME280;12423;48.768;8.850;2024-01-06T08:47:00;96098.03;;;4.73;100.00
24306;BME280;12423;48.768;8.850;2024-01-06T08:49:29;96099.69;;;4.63;100.00
24306;BME280;12423;48.768;8.850;2024-01-06T08:51:56;96104.25;;;4.72;100.00
24306;BME280;12423;48.768;8.850;2024-01-06T08:54:24;96102.38;;;4.85;100.00
24306;BME280;12423;48.768;8.850;2024-01-06T08:56:53;96099.72;;;4.85;100.00
24306;BME280;12423;48.768;8.850;2024-01-06T08:59:20;96108.88;;;5.04;100.00
24306;BME280;12423;48.768;8.850;2024-01-06T09:01:48;96103.81;;;5.01;100.00
24306;BME280;12423;48.768;8.850;2024-01-06T09:04:16;96112.94;;;4.96;100.00
24306;BME280;12423;48.768;8.850;2024-01-06T09:06:44;96103.22;;;4.86;100.00
24306;BME280;12423;48.768;8.850;2024-01-06T09:09:13;96110.69;;;4.92;100.00
24306;BME280;12423;48.768;8.850;2024-01-06T09:11:40;96100.22;;;5.02;100.00
24306;BME280;12423;48.768;8.850;2024-01-06T09:14:09;96105.13;;;5.06;100.00
24306;BME280;12423;48.768;8.850;2024-01-06T09:16:37;96113.78;;;5.20;100.00
24306;BME280;12423;48.768;8.850;2024-01-06T09:19:05;96111.50;;;5.26;100.00
24306;BME280;12423;48.768;8.850;2024-01-06T09:21:33;96108.34;;;5.32;100.00
24306;BME280;12423;48.768;8.850;2024-01-06T09:24:02;96110.53;;;5.27;100.00
24306;BME280;12423;48.768;8.850;2024-01-06T09:26:32;96118.81;;;5.45;100.00
24306;BME280;12423;48.768;8.850;2024-01-06T09:29:00;96115.09;;;5.48;100.00
24306;BME280;12423;48.768;8.850;2024-01-06T09:31:29;96120.63;;;5.33;100.00
24306;BME280;12423;48.768;8.850;2024-01-06T09:34:00;96125.59;;;5.27;100.00
24306;BME280;12423;48.768;8.850;2024-01-06T09:36:29;96132.53;;;5.28;100.00
24306;BME280;12423;48.768;8.850;2024-01-06T09:38:57;96138.47;;;5.09;100.00
24306;BME280;12423;48.768;8.850;2024-01-06T09:41:24;96138.22;;;5.23;100.00
24306;BME280;12423;48.768;8.850;2024-01-06T09:43:52;96146.63;;;5.06;100.00
24306;BME280;12423;48.768;8.850;2024-01-06T09:46:21;96149.66;;;5.12;100.00
24306;BME280;12423;48.768;8.850;2024-01-06T09:48:52;96148.69;;;5.13;100.00
24306;BME280;12423;48.768;8.850;2024-01-06T09:51:21;96154.59;;;5.28;100.00
24306;BME280;12423;48.768;8.850;2024-01-06T09:53:49;96154.13;;;5.23;100.00
24306;BME280;12423;48.768;8.850;2024-01-06T09:56:21;96153.63;;;5.18;100.00
24306;BME280;12423;48.768;8.850;2024-01-06T09:58:51;96152.31;;;5.24;100.00
24306;BME280;12423;48.768;8.850;2024-01-06T10:01:18;96156.25;;;5.29;100.00
24306;BME280;12423;48.768;8.850;2024-01-06T10:03:46;96151.22;;;5.26;100.00
24306;BME280;12423;48.768;8.850;2024-01-06T10:06:15;96148.59;;;5.15;100.00
24306;BME280;12423;48.768;8.850;2024-01-06T10:08:43;96147.47;;;5.17;100.00
24306;BME280;12423;48.768;8.850;2024-01-06T10:11:11;96147.84;;;5.13;100.00
24306;BME280;12423;48.768;8.850;2024-01-06T10:13:41;96148.47;;;5.16;100.00
24306;BME280;12423;48.768;8.850;2024-01-06T10:16:09;96149.78;;;5.33;100.00
24306;BME280;12423;48.768;8.850;2024-01-06T10:18:36;96151.72;;;5.31;100.00
24306;BME280;12423;48.768;8.850;2024-01-06T10:21:04;96157.84;;;5.43;100.00
24306;BME280;12423;48.768;8.850;2024-01-06T10:23:34;96148.66;;;5.36;100.00
24306;BME280;12423;48.768;8.850;2024-01-06T10:26:03;96150.00;;;5.42;100.00
24306;BME280;12423;48.768;8.850;2024-01-06T10:28:31;96153.97;;;5.47;100.00
24306;BME280;12423;48.768;8.850;2024-01-06T10:30:59;96143.00;;;5.41;100.00
24306;BME280;12423;48.768;8.850;2024-01-06T10:33:27;96152.78;;;5.29;100.00
24306;BME280;12423;48.768;8.850;2024-01-06T10:35:55;96157.47;;;5.37;100.00
24306;BME280;12423;48.768;8.850;2024-01-06T10:38:23;96156.75;;;5.23;100.00
24306;BME280;12423;48.768;8.850;2024-01-06T10:40:57;96150.47;;;5.24;100.00
24306;BME280;12423;48.768;8.850;2024-01-06T10:43:25;96154.59;;;5.28;100.00
24306;BME280;12423;48.768;8.850;2024-01-06T10:45:53;96154.84;;;5.25;100.00
24306;BME280;12423;48.768;8.850;2024-01-06T10:48:21;96160.13;;;5.37;100.00
24306;BME280;12423;48.768;8.850;2024-01-06T10:50:50;96160.59;;;5.42;100.00
24306;BME280;12423;48.768;8.850;2024-01-06T10:53:17;96154.59;;;5.28;100.00
24306;BME280;12423;48.768;8.850;2024-01-06T10:55:46;96160.25;;;5.35;100.00
24306;BME280;12423;48.768;8.850;2024-01-06T10:58:15;96154.84;;;5.25;100.00
24306;BME280;12423;48.768;8.850;2024-01-06T11:00:43;96154.34;;;5.31;100.00
24306;BME280;12423;48.768;8.850;2024-01-06T11:03:11;96150.13;;;5.51;100.00
24306;BME280;12423;48.768;8.850;2024-01-06T11:05:40;96147.69;;;5.60;100.00
24306;BME280;12423;48.768;8.850;2024-01-06T11:08:08;96149.53;;;5.48;100.00
24306;BME280;12423;48.768;8.850;2024-01-06T11:10:37;96149.72;;;5.67;100.00
24306;BME280;12423;48.768;8.850;2024-01-06T11:13:08;96147.34;;;5.64;100.00
24306;BME280;12423;48.768;8.850;2024-01-06T11:15:46;96152.34;;;5.67;100.00
24306;BME280;12423;48.768;8.850;2024-01-06T11:18:33;96157.34;;;5.49;100.00
24306;BME280;12423;48.768;8.850;2024-01-06T11:21:14;96150.00;;;5.42;100.00
24306;BME280;12423;48.768;8.850;2024-01-06T11:23:43;96152.63;;;5.64;100.00
24306;BME280;12423;48.768;8.850;2024-01-06T11:26:11;96159.13;;;5.60;100.00
24306;BME280;12423;48.768;8.850;2024-01-06T11:28:43;96151.91;;;5.51;100.00
24306;BME280;12423;48.768;8.850;2024-01-06T11:31:12;96146.13;;;5.57;100.00
24306;BME280;12423;48.768;8.850;2024-01-06T11:33:43;96147.69;;;5.60;100.00
24306;BME280;12423;48.768;8.850;2024-01-06T11:36:10;96134.09;;;5.53;100.00
24306;BME280;12423;48.768;8.850;2024-01-06T11:38:38;96146.38;;;5.43;100.00
24306;BME280;12423;48.768;8.850;2024-01-06T11:41:06;96144.72;;;5.42;100.00
24306;BME280;12423;48.768;8.850;2024-01-06T11:43:35;96141.31;;;5.51;100.00
24306;BME280;12423;48.768;8.850;2024-01-06T11:46:03;96126.63;;;5.58;100.00
24306;BME280;12423;48.768;8.850;2024-01-06T11:48:34;96123.16;;;5.58;100.00
24306;BME280;12423;48.768;8.850;2024-01-06T11:51:03;96123.41;;;5.87;100.00
24306;BME280;12423;48.768;8.850;2024-01-06T11:53:31;96116.44;;;5.86;100.00
24306;BME280;12423;48.768;8.850;2024-01-06T11:55:59;96125.84;;;5.79;100.00
24306;BME280;12423;48.768;8.850;2024-01-06T11:58:27;96122.75;;;5.62;100.00
24306;BME280;12423;48.768;8.850;2024-01-06T12:00:55;96109.75;;;5.59;100.00
24306;BME280;12423;48.768;8.850;2024-01-06T12:03:23;96108.47;;;5.42;100.00
24306;BME280;12423;48.768;8.850;2024-01-06T12:06:00;96116.88;;;5.47;100.00
24306;BME280;12423;48.768;8.850;2024-01-06T12:08:29;96117.28;;;5.09;100.00
24306;BME280;12423;48.768;8.850;2024-01-06T12:11:02;96110.53;;;5.16;100.00
24306;BME280;12423;48.768;8.850;2024-01-06T12:13:30;96113.19;;;5.27;100.00
24306;BME280;12423;48.768;8.850;2024-01-06T12:15:58;96114.41;;;5.23;100.00
24306;BME280;12423;48.768;8.850;2024-01-06T12:18:26;96118.34;;;5.29;100.00
24306;BME280;12423;48.768;8.850;2024-01-06T12:20:54;96119.53;;;5.47;100.00
24306;BME280;12423;48.768;8.850;2024-01-06T12:23:26;96114.22;;;5.47;100.00
24306;BME280;12423;48.768;8.850;2024-01-06T12:25:54;96120.16;;;5.28;100.00
24306;BME280;12423;48.768;8.850;2024-01-06T12:28:21;96117.00;;;5.34;100.00
24306;BME280;12423;48.768;8.850;2024-01-06T12:30:49;96116.03;;;5.47;100.00
24306;BME280;12423;48.768;8.850;2024-01-06T12:33:17;96110.25;;;5.64;100.00
24306;BME280;12423;48.768;8.850;2024-01-06T12:35:46;96103.63;;;6.02;100.00
24306;BME280;12423;48.768;8.850;2024-01-06T12:38:13;96111.50;;;5.81;100.00
24306;BME280;12423;48.768;8.850;2024-01-06T12:43:35;96100.75;;;8.49;100.00
24306;BME280;12423;48.768;8.850;2024-01-06T12:46:05;96104.34;;;6.89;100.00
24306;BME280;12423;48.768;8.850;2024-01-06T12:48:33;96107.75;;;6.49;100.00
24306;BME280;12423;48.768;8.850;2024-01-06T12:51:01;96104.97;;;6.29;100.00
24306;BME280;12423;48.768;8.850;2024-01-06T12:53:29;96100.47;;;6.08;100.00
24306;BME280;12423;48.768;8.850;2024-01-06T12:55:56;96103.41;;;5.94;100.00
24306;BME280;12423;48.768;8.850;2024-01-06T12:58:24;96117.28;;;5.31;100.00
24306;BME280;12423;48.768;8.850;2024-01-06T13:00:53;96109.22;;;5.33;100.00
24306;BME280;12423;48.768;8.850;2024-01-06T13:03:21;96108.59;;;5.29;100.00
24306;BME280;12423;48.768;8.850;2024-01-06T13:05:49;96109.47;;;5.30;100.00
24306;BME280;12423;48.768;8.850;2024-01-06T13:08:17;96111.25;;;5.29;100.00
24306;BME280;12423;48.768;8.850;2024-01-06T13:10:44;96109.56;;;5.40;100.00